Time;durP1;ratioP1;P1;durP2;ratioP2;P2;SDS_P1;SDS_P2;PMS_P1;PMS_P2;Temp;Humidity;BMP_temperature;BMP_pressure;BME280_temperature;BME280_humidity;BME280_pressure;Samples;Min_cycle;Max_cycle;Signal;HPM_P1;HPM_P2
2022/03/18 00:02:03;;;;;;;9.55;1.90;;;2.20;99.90;;;;;;5023330;28;20033;-88
2022/03/18 00:04:29;;;;;;;8.55;2.40;;;2.20;99.90;;;;;;5013992;28;20529;-87
2022/03/18 00:06:54;;;;;;;16.90;3.75;;;2.20;99.90;;;;;;5038436;28;20121;-88
2022/03/18 00:09:21;;;;;;;10.55;2.47;;;2.10;99.90;;;;;;5014222;28;20470;-88
2022/03/18 00:11:47;;;;;;;6.78;1.83;;;2.10;99.90;;;;;;5011921;28;20054;-88
2022/03/18 00:14:13;;;;;;;9.98;2.38;;;2.10;99.90;;;;;;5017708;28;20049;-88
2022/03/18 00:16:38;;;;;;;13.27;2.35;;;2.00;99.90;;;;;;5037964;28;20487;-88
2022/03/18 00:19:04;;;;;;;12.13;3.45;;;1.90;99.90;;;;;;5013590;28;20025;-87
2022/03/18 00:21:29;;;;;;;9.95;3.20;;;1.90;99.90;;;;;;5013180;28;20485;-87
2022/03/18 00:23:55;;;;;;;11.20;3.80;;;1.90;99.90;;;;;;5012116;28;20028;-88
2022/03/18 00:26:20;;;;;;;10.43;3.97;;;1.90;99.90;;;;;;5018011;28;20068;-87
2022/03/18 00:28:46;;;;;;;13.63;4.13;;;1.90;99.90;;;;;;5012924;28;20120;-87
2022/03/18 00:31:12;;;;;;;16.50;4.72;;;1.90;99.90;;;;;;5028053;28;20034;-87
2022/03/18 00:33:37;;;;;;;9.52;3.45;;;1.90;99.90;;;;;;5017363;28;20058;-88
2022/03/18 00:36:03;;;;;;;10.85;3.30;;;1.90;99.90;;;;;;5036550;28;20049;-88
2022/03/18 00:38:29;;;;;;;10.52;3.35;;;2.00;99.90;;;;;;5011623;28;20032;-88
2022/03/18 00:40:56;;;;;;;14.80;3.30;;;1.90;99.90;;;;;;5018319;28;20014;-87
2022/03/18 00:43:22;;;;;;;19.20;2.97;;;1.90;99.90;;;;;;5011275;28;20394;-88
2022/03/18 00:45:48;;;;;;;14.80;3.75;;;1.80;99.90;;;;;;5021825;28;20060;-87
2022/03/18 00:53:41;;;;;;;9.00;3.85;;;1.70;99.90;;;;;;5002569;28;20033;-87
2022/03/18 00:56:07;;;;;;;12.85;3.72;;;1.70;99.90;;;;;;5022038;28;20049;-87
2022/03/18 00:58:33;;;;;;;14.10;3.70;;;1.70;99.90;;;;;;5009405;28;20023;-87
2022/03/18 01:00:58;;;;;;;8.77;3.00;;;1.70;99.90;;;;;;5024741;28;20029;-87
2022/03/18 01:03:24;;;;;;;21.08;4.70;;;1.70;99.90;;;;;;5014538;28;20470;-88
2022/03/18 01:05:49;;;;;;;13.70;4.00;;;1.70;99.90;;;;;;5012833;28;20530;-87
2022/03/18 01:08:15;;;;;;;17.45;5.50;;;1.60;99.90;;;;;;5012629;28;20080;-87
2022/03/18 01:10:40;;;;;;;14.38;4.10;;;1.70;99.90;;;;;;5015642;28;20047;-87
2022/03/18 01:13:06;;;;;;;19.10;5.15;;;1.70;99.90;;;;;;5016143;28;20112;-87
2022/03/18 01:15:31;;;;;;;14.52;5.05;;;1.60;99.90;;;;;;5046014;28;20088;-87
2022/03/18 01:17:57;;;;;;;16.48;5.47;;;1.70;99.90;;;;;;5045784;28;20033;-87
2022/03/18 01:20:23;;;;;;;12.60;4.80;;;1.70;99.90;;;;;;5012676;28;20026;-87
2022/03/18 01:22:49;;;;;;;13.68;4.97;;;1.70;99.90;;;;;;5012105;28;20030;-87
2022/03/18 01:25:14;;;;;;;14.77;4.22;;;1.70;99.90;;;;;;5012154;28;20493;-87
2022/03/18 01:27:40;;;;;;;14.82;3.83;;;1.60;99.90;;;;;;5012424;28;20030;-88
2022/03/18 01:30:06;;;;;;;11.25;3.92;;;1.60;99.90;;;;;;5026487;28;20061;-87
2022/03/18 01:32:33;;;;;;;10.13;4.05;;;1.60;99.90;;;;;;5023142;28;20030;-87
2022/03/18 01:34:59;;;;;;;13.25;4.18;;;1.50;99.90;;;;;;5015334;28;20030;-87
2022/03/18 01:37:25;;;;;;;13.57;4.63;;;1.50;99.90;;;;;;5012543;28;20387;-87
2022/03/18 01:39:51;;;;;;;12.65;4.13;;;1.50;99.90;;;;;;5012288;28;20022;-87
2022/03/18 01:42:16;;;;;;;9.32;3.72;;;1.50;99.90;;;;;;5012134;28;20032;-87
2022/03/18 01:44:43;;;;;;;10.90;4.20;;;1.50;99.90;;;;;;5022165;28;20469;-87
2022/03/18 01:47:09;;;;;;;9.52;3.67;;;1.50;99.90;;;;;;5021345;28;20022;-87
2022/03/18 01:49:35;;;;;;;10.95;3.70;;;1.40;99.90;;;;;;5017597;28;20022;-87
2022/03/18 01:52:01;;;;;;;11.65;3.65;;;1.30;99.90;;;;;;5014130;28;20037;-86
2022/03/18 01:57:16;;;;;;;16.50;4.32;;;1.30;99.90;;;;;;5016277;28;20044;-87
2022/03/18 01:59:41;;;;;;;11.45;3.53;;;1.20;99.90;;;;;;5019541;28;20496;-87
2022/03/18 02:02:08;;;;;;;12.23;3.80;;;1.20;99.90;;;;;;5021765;28;20031;-87
2022/03/18 02:04:35;;;;;;;14.45;4.03;;;1.20;99.90;;;;;;5022915;28;20026;-87
2022/03/18 02:07:02;;;;;;;11.98;4.75;;;1.20;99.90;;;;;;5011694;28;20112;-87
2022/03/18 02:09:29;;;;;;;8.75;4.22;;;1.10;99.90;;;;;;5003325;28;20030;-87
2022/03/18 02:11:55;;;;;;;13.02;4.60;;;1.10;99.90;;;;;;5024196;28;20185;-87
2022/03/18 02:14:34;;;;;;;16.02;4.43;;;1.10;99.90;;;;;;5012355;28;20137;-87
2022/03/18 02:17:02;;;;;;;13.32;4.93;;;1.10;99.90;;;;;;5012048;28;20068;-87
2022/03/18 02:19:27;;;;;;;15.95;4.05;;;1.10;99.90;;;;;;5008280;28;20019;-86
2022/03/18 02:21:54;;;;;;;8.25;3.28;;;1.10;99.90;;;;;;5011292;28;20045;-87
2022/03/18 02:24:20;;;;;;;12.40;4.55;;;1.00;99.90;;;;;;5017933;28;20033;-87
2022/03/18 02:26:51;;;;;;;17.80;4.47;;;1.00;99.90;;;;;;5015210;28;20478;-86
2022/03/18 02:29:19;;;;;;;11.13;4.25;;;0.90;99.90;;;;;;5001648;28;20030;-87
2022/03/18 02:31:45;;;;;;;9.52;3.83;;;0.90;99.90;;;;;;5009264;28;20545;-87
2022/03/18 02:34:10;;;;;;;12.38;4.82;;;0.90;99.90;;;;;;5029593;28;20122;-87
2022/03/18 02:36:36;;;;;;;11.65;4.22;;;0.90;99.90;;;;;;5014748;28;20038;-87
2022/03/18 02:39:02;;;;;;;9.35;3.95;;;0.90;99.90;;;;;;5026509;28;20414;-87
2022/03/18 02:41:27;;;;;;;13.23;4.07;;;1.00;99.90;;;;;;5014982;28;20026;-87
2022/03/18 02:43:53;;;;;;;12.20;4.78;;;0.90;99.90;;;;;;5028168;28;20022;-87
2022/03/18 02:46:18;;;;;;;11.65;4.25;;;0.90;99.90;;;;;;5031213;28;20037;-87
2022/03/18 02:48:44;;;;;;;15.25;4.38;;;0.80;99.90;;;;;;5014844;28;20022;-87
2022/03/18 02:51:10;;;;;;;11.82;4.53;;;0.70;99.90;;;;;;5015041;28;20033;-87
2022/03/18 02:53:36;;;;;;;11.00;4.30;;;0.70;99.90;;;;;;5019258;28;20022;-87
2022/03/18 02:56:04;;;;;;;14.45;4.63;;;0.70;99.90;;;;;;5028947;28;20037;-87
2022/03/18 02:58:29;;;;;;;13.13;4.00;;;0.70;99.90;;;;;;5023232;28;20082;-86
2022/03/18 03:00:55;;;;;;;12.00;4.28;;;0.60;99.90;;;;;;5031247;28;20113;-87
2022/03/18 03:03:20;;;;;;;12.82;4.35;;;0.60;99.90;;;;;;5012356;28;20109;-87
2022/03/18 03:08:31;;;;;;;12.10;4.38;;;0.50;99.90;;;;;;5014892;28;20135;-86
2022/03/18 03:10:57;;;;;;;16.40;4.70;;;0.50;99.90;;;;;;5012255;28;20050;-87
2022/03/18 03:13:23;;;;;;;17.63;5.20;;;0.50;99.90;;;;;;5014059;28;20809;-87
2022/03/18 03:15:49;;;;;;;14.52;4.50;;;0.50;99.90;;;;;;5022674;28;20048;-87
2022/03/18 03:18:15;;;;;;;13.30;4.20;;;0.50;99.90;;;;;;5013847;28;20022;-86
2022/03/18 03:20:41;;;;;;;13.90;4.55;;;0.40;99.90;;;;;;5010562;28;20038;-86
2022/03/18 03:23:06;;;;;;;12.75;4.65;;;0.40;99.90;;;;;;5014119;28;20523;-87
2022/03/18 03:25:32;;;;;;;14.65;4.25;;;0.40;99.90;;;;;;5012730;28;20030;-87
2022/03/18 03:27:58;;;;;;;17.98;4.97;;;0.40;99.90;;;;;;5017124;28;20440;-87
2022/03/18 03:30:24;;;;;;;21.13;6.93;;;0.40;99.90;;;;;;5014656;28;20064;-87
2022/03/18 03:32:49;;;;;;;10.48;5.07;;;0.40;99.90;;;;;;5013948;28;20072;-87
2022/03/18 03:35:15;;;;;;;13.10;5.53;;;0.40;99.90;;;;;;5030816;28;20109;-87
2022/03/18 03:37:42;;;;;;;15.57;6.05;;;0.40;99.90;;;;;;5008898;28;20038;-87
2022/03/18 03:40:08;;;;;;;14.65;6.40;;;0.40;99.90;;;;;;5016048;28;20032;-87
2022/03/18 03:42:34;;;;;;;18.15;7.72;;;0.40;99.90;;;;;;5010173;28;20528;-87
2022/03/18 03:44:59;;;;;;;16.52;5.82;;;0.40;99.90;;;;;;5006632;28;20039;-87
2022/03/18 03:47:25;;;;;;;11.07;4.72;;;0.40;99.90;;;;;;5028920;28;20036;-86
2022/03/18 03:49:51;;;;;;;10.98;5.07;;;0.40;99.90;;;;;;5011853;28;20030;-87
2022/03/18 03:52:16;;;;;;;10.73;5.00;;;0.30;99.90;;;;;;5013570;28;20034;-86
2022/03/18 03:54:42;;;;;;;16.50;5.45;;;0.30;99.90;;;;;;5012164;28;20022;-87
2022/03/18 03:57:08;;;;;;;14.18;5.95;;;0.30;99.90;;;;;;5013350;28;20073;-87
2022/03/18 03:59:34;;;;;;;16.25;7.68;;;0.20;99.90;;;;;;5036764;28;20486;-86
2022/03/18 04:02:00;;;;;;;24.00;13.80;;;0.20;99.90;;;;;;5014141;28;20041;-86
2022/03/18 04:04:26;;;;;;;32.17;16.73;;;0.20;99.90;;;;;;5019852;28;20022;-87
2022/03/18 04:06:52;;;;;;;25.73;14.45;;;0.20;99.90;;;;;;5030052;28;20482;-86
2022/03/18 04:09:18;;;;;;;23.25;13.40;;;0.20;99.90;;;;;;5013392;28;20030;-87
2022/03/18 04:11:43;;;;;;;29.90;13.73;;;0.30;99.90;;;;;;5013298;28;20042;-87
2022/03/18 04:14:09;;;;;;;25.83;12.70;;;0.20;99.90;;;;;;5015624;28;20030;-86
2022/03/18 04:16:35;;;;;;;26.98;14.77;;;0.20;99.90;;;;;;5005837;28;20065;-87
2022/03/18 04:19:03;;;;;;;26.70;14.60;;;0.20;99.90;;;;;;5020197;28;20481;-87
2022/03/18 04:21:28;;;;;;;25.38;13.27;;;0.20;99.90;;;;;;5013457;28;20065;-86
2022/03/18 04:23:54;;;;;;;28.80;15.00;;;0.20;99.90;;;;;;5011261;28;20108;-87
2022/03/18 04:26:19;;;;;;;28.30;13.75;;;0.20;99.90;;;;;;5015393;28;20014;-86
2022/03/18 04:28:45;;;;;;;28.42;15.15;;;0.20;99.90;;;;;;5013233;28;20113;-87
2022/03/18 04:31:10;;;;;;;31.38;13.60;;;0.20;99.90;;;;;;5023528;28;20019;-87
2022/03/18 04:33:36;;;;;;;25.15;14.82;;;0.20;99.90;;;;;;5015402;28;20034;-87
2022/03/18 04:36:01;;;;;;;27.95;13.77;;;0.20;99.90;;;;;;5008310;28;20029;-87
2022/03/18 04:38:27;;;;;;;32.35;13.60;;;0.20;99.90;;;;;;5011131;28;20038;-87
2022/03/18 04:40:53;;;;;;;21.40;12.63;;;0.20;99.90;;;;;;5034830;28;20022;-86
2022/03/18 04:43:18;;;;;;;37.00;13.60;;;0.20;99.90;;;;;;5012136;28;20097;-87
2022/03/18 04:45:45;;;;;;;29.20;12.95;;;0.20;99.90;;;;;;5023539;28;20124;-86
2022/03/18 04:48:10;;;;;;;22.30;10.80;;;0.10;99.90;;;;;;5044061;28;20028;-87
2022/03/18 04:50:36;;;;;;;23.05;10.15;;;0.10;99.90;;;;;;5013494;28;20101;-87
2022/03/18 04:53:01;;;;;;;19.25;9.70;;;0.10;99.90;;;;;;5012310;28;20030;-87
2022/03/18 04:55:27;;;;;;;21.48;9.50;;;0.10;99.90;;;;;;5026059;28;20018;-87
2022/03/18 04:57:52;;;;;;;19.33;9.30;;;0.10;99.90;;;;;;5012769;28;20053;-86
2022/03/18 05:00:20;;;;;;;23.80;10.07;;;0.00;99.90;;;;;;5025428;28;20093;-87
2022/03/18 05:02:45;;;;;;;17.60;9.30;;;0.00;99.90;;;;;;5011971;28;20030;-87
2022/03/18 05:05:11;;;;;;;19.70;9.50;;;0.00;99.90;;;;;;5011554;28;20102;-87
2022/03/18 05:07:39;;;;;;;19.80;9.20;;;0.00;99.90;;;;;;5018382;28;20060;-87
2022/03/18 05:10:06;;;;;;;19.90;9.98;;;0.00;99.90;;;;;;5031948;28;20069;-86
2022/03/18 05:12:33;;;;;;;25.73;10.50;;;0.00;99.90;;;;;;5013934;28;20033;-86
2022/03/18 05:14:59;;;;;;;20.17;9.85;;;-0.10;99.90;;;;;;5023594;28;20108;-87
2022/03/18 05:17:25;;;;;;;23.55;10.27;;;-0.10;99.90;;;;;;5017657;28;20038;-86
2022/03/18 05:19:51;;;;;;;18.88;9.32;;;0.00;99.90;;;;;;5007971;28;20117;-86
2022/03/18 05:22:17;;;;;;;19.42;8.82;;;0.00;99.90;;;;;;5011672;28;20046;-87
2022/03/18 05:24:43;;;;;;;24.00;10.10;;;0.00;99.90;;;;;;5018623;28;20026;-87
2022/03/18 05:27:08;;;;;;;25.25;9.93;;;0.10;99.90;;;;;;5018526;28;20033;-87
2022/03/18 05:29:34;;;;;;;18.17;8.95;;;0.10;99.90;;;;;;5017125;28;20049;-87
2022/03/18 05:32:00;;;;;;;22.13;9.20;;;0.10;99.90;;;;;;5029109;28;20022;-87
2022/03/18 05:34:27;;;;;;;20.85;9.18;;;0.10;99.90;;;;;;5031564;28;20022;-87
2022/03/18 05:36:52;;;;;;;22.80;9.70;;;0.10;99.90;;;;;;5018113;28;20061;-87
2022/03/18 05:39:18;;;;;;;16.08;8.63;;;0.10;99.90;;;;;;5008916;28;20061;-87
2022/03/18 05:41:44;;;;;;;20.63;10.02;;;0.10;99.90;;;;;;5023296;28;20026;-87
2022/03/18 05:44:11;;;;;;;15.43;8.43;;;0.10;99.90;;;;;;5007713;28;20018;-87
2022/03/18 05:46:37;;;;;;;22.98;9.15;;;0.00;99.90;;;;;;5011154;28;20120;-87
2022/03/18 05:49:03;;;;;;;19.02;8.05;;;0.00;99.90;;;;;;5010114;28;20120;-87
2022/03/18 05:51:30;;;;;;;21.00;8.77;;;0.00;99.90;;;;;;5011954;28;20032;-87
2022/03/18 05:53:56;;;;;;;14.25;7.95;;;-0.10;99.90;;;;;;5018403;28;20022;-88
2022/03/18 05:59:07;;;;;;;15.10;6.57;;;-0.10;99.90;;;;;;5020258;28;20048;-87
2022/03/18 06:01:37;;;;;;;11.85;5.90;;;-0.10;99.90;;;;;;5005360;28;20027;-87
2022/03/18 06:04:04;;;;;;;15.15;6.88;;;-0.10;99.90;;;;;;5018694;28;20113;-87
2022/03/18 06:06:30;;;;;;;19.10;6.88;;;-0.20;99.90;;;;;;5010504;28;20438;-87
2022/03/18 06:11:48;;;;;;;16.75;6.20;;;-0.10;99.90;;;;;;5007677;28;20517;-87
2022/03/18 06:14:22;;;;;;;12.07;6.28;;;-0.10;99.90;;;;;;5016602;28;20133;-87
2022/03/18 06:16:50;;;;;;;16.02;6.13;;;-0.10;99.90;;;;;;5015160;28;20100;-87
2022/03/18 06:19:17;;;;;;;15.10;6.88;;;0.00;99.90;;;;;;5019655;28;20026;-87
2022/03/18 06:21:43;;;;;;;17.45;6.80;;;0.00;99.90;;;;;;5012796;28;20018;-87
2022/03/18 06:24:09;;;;;;;16.80;7.63;;;0.10;99.90;;;;;;5004410;28;20036;-87
2022/03/18 06:26:35;;;;;;;16.70;6.93;;;0.10;99.90;;;;;;5015735;28;20033;-88
2022/03/18 06:29:01;;;;;;;14.95;6.30;;;0.20;99.90;;;;;;5015655;28;20018;-87
2022/03/18 06:31:27;;;;;;;16.52;6.97;;;0.20;99.90;;;;;;5015591;28;20501;-88
2022/03/18 06:33:52;;;;;;;12.63;6.60;;;0.30;99.90;;;;;;5032752;28;20053;-87
2022/03/18 06:36:18;;;;;;;17.48;6.55;;;0.30;99.90;;;;;;5015469;28;20041;-88
2022/03/18 06:38:43;;;;;;;17.85;6.57;;;0.40;99.90;;;;;;5017584;28;20018;-87
2022/03/18 06:41:09;;;;;;;14.35;6.90;;;0.50;99.90;;;;;;5019473;28;20026;-86
2022/03/18 06:43:35;;;;;;;14.43;6.70;;;0.50;99.90;;;;;;5018886;28;20033;-87
2022/03/18 06:46:02;;;;;;;12.88;6.82;;;0.70;99.90;;;;;;5022767;28;20029;-87
2022/03/18 06:48:27;;;;;;;16.25;7.15;;;0.70;99.90;;;;;;5017210;28;20034;-87
2022/03/18 06:50:53;;;;;;;18.20;7.95;;;0.80;99.90;;;;;;5015299;28;20500;-87
2022/03/18 06:53:19;;;;;;;22.85;7.35;;;0.90;99.90;;;;;;5021668;28;20034;-87
2022/03/18 06:55:44;;;;;;;20.70;8.63;;;1.00;99.90;;;;;;5014117;28;20034;-87
2022/03/18 06:58:10;;;;;;;14.75;7.15;;;1.00;99.90;;;;;;5020550;28;20077;-87
2022/03/18 07:00:36;;;;;;;18.90;8.00;;;1.10;99.90;;;;;;5017317;28;20086;-88
2022/03/18 07:03:02;;;;;;;15.98;7.70;;;1.30;99.90;;;;;;5013115;28;20030;-87
2022/03/18 07:05:27;;;;;;;213.20;20.08;;;1.30;99.90;;;;;;5020683;28;20599;-88
2022/03/18 07:07:53;;;;;;;44.97;9.98;;;1.40;99.90;;;;;;5016394;28;20032;-88
2022/03/18 07:10:19;;;;;;;21.35;7.75;;;1.50;99.90;;;;;;5023158;28;20546;-85
2022/03/18 07:12:45;;;;;;;27.10;8.55;;;1.70;99.90;;;;;;5012095;28;20049;-88
2022/03/18 07:15:10;;;;;;;28.17;7.88;;;1.80;99.90;;;;;;5014481;28;20026;-88
2022/03/18 07:20:22;;;;;;;21.02;7.63;;;2.10;99.90;;;;;;5010542;28;20502;-85
2022/03/18 07:23:10;;;;;;;20.42;7.90;;;2.20;99.90;;;;;;5024693;28;20041;-85
2022/03/18 07:25:38;;;;;;;20.30;7.60;;;2.40;99.90;;;;;;5004278;28;20084;-85
2022/03/18 07:28:05;;;;;;;12.95;7.53;;;2.50;99.90;;;;;;5019203;28;20109;-88
2022/03/18 07:30:31;;;;;;;13.02;6.55;;;2.70;99.90;;;;;;5025013;28;20026;-84
2022/03/18 07:32:57;;;;;;;16.90;7.18;;;2.80;99.90;;;;;;5011011;28;20034;-85
2022/03/18 07:35:23;;;;;;;20.70;6.10;;;2.90;99.90;;;;;;5010873;28;20022;-86
2022/03/18 07:37:49;;;;;;;21.27;7.05;;;3.10;99.90;;;;;;5030652;28;20064;-86
2022/03/18 07:40:18;;;;;;;19.42;7.70;;;3.20;99.90;;;;;;5013862;28;20393;-86
2022/03/18 07:42:52;;;;;;;15.63;6.95;;;3.30;99.90;;;;;;5009080;28;20493;-86
2022/03/18 07:45:28;;;;;;;16.77;7.10;;;3.50;99.90;;;;;;5007354;28;20268;-86
2022/03/18 07:48:01;;;;;;;14.88;7.40;;;3.60;99.90;;;;;;5017057;28;20022;-87
2022/03/18 07:50:28;;;;;;;14.68;6.97;;;3.90;99.90;;;;;;5013552;28;20049;-87
2022/03/18 07:53:05;;;;;;;18.15;6.90;;;4.00;99.90;;;;;;5016293;28;20030;-86
2022/03/18 07:55:32;;;;;;;14.15;6.90;;;4.20;99.90;;;;;;5045435;28;20026;-87
2022/03/18 07:57:59;;;;;;;15.00;7.65;;;4.40;99.90;;;;;;5016988;28;20551;-87
2022/03/18 08:00:25;;;;;;;19.55;7.90;;;4.60;99.90;;;;;;5016498;28;20057;-87
2022/03/18 08:02:53;;;;;;;19.90;7.70;;;4.80;99.90;;;;;;5023001;28;20074;-87
2022/03/18 08:05:20;;;;;;;21.70;6.95;;;5.00;99.90;;;;;;5014857;28;20421;-86
2022/03/18 08:07:46;;;;;;;14.30;7.13;;;5.20;99.90;;;;;;5034851;28;20028;-87
2022/03/18 08:10:13;;;;;;;16.05;8.05;;;5.30;99.90;;;;;;5027702;28;20556;-86
2022/03/18 08:12:40;;;;;;;16.10;7.15;;;5.50;99.90;;;;;;5022096;28;20482;-87
2022/03/18 08:15:10;;;;;;;14.63;6.97;;;5.60;99.90;;;;;;5014350;28;20026;-87
2022/03/18 08:17:38;;;;;;;22.13;6.72;;;5.80;99.90;;;;;;5022537;28;20125;-87
2022/03/18 08:20:04;;;;;;;18.20;6.75;;;5.90;99.90;;;;;;5008141;28;20030;-87
2022/03/18 08:22:30;;;;;;;17.83;6.10;;;6.10;99.90;;;;;;5006788;28;20120;-88
2022/03/18 08:24:55;;;;;;;14.52;6.90;;;6.20;99.90;;;;;;5013845;28;20096;-88
2022/03/18 08:27:21;;;;;;;18.13;6.30;;;6.40;99.90;;;;;;5007560;28;20061;-90
2022/03/18 08:29:47;;;;;;;14.95;5.80;;;6.60;99.90;;;;;;5025601;28;20026;-87
2022/03/18 08:32:14;;;;;;;14.73;6.55;;;6.80;99.90;;;;;;5015014;28;20026;-87
2022/03/18 08:34:41;;;;;;;14.52;5.82;;;7.00;99.90;;;;;;5025244;28;20021;-86
2022/03/18 08:37:06;;;;;;;17.00;5.97;;;7.20;99.90;;;;;;5028282;28;20034;-87
2022/03/18 08:39:33;;;;;;;15.20;5.43;;;7.40;99.90;;;;;;5009827;28;20040;-87
2022/03/18 08:41:58;;;;;;;14.30;5.50;;;7.50;99.90;;;;;;5029011;28;20400;-87
2022/03/18 08:44:24;;;;;;;14.57;5.47;;;7.70;99.90;;;;;;5028972;28;20033;-87
2022/03/18 08:46:49;;;;;;;14.75;5.40;;;7.90;99.90;;;;;;5012910;28;20393;-87
2022/03/18 08:49:16;;;;;;;11.13;5.38;;;8.00;99.90;;;;;;5019857;28;20022;-87
2022/03/18 08:51:42;;;;;;;13.93;4.45;;;8.10;99.90;;;;;;5022358;28;20029;-87
2022/03/18 08:54:07;;;;;;;16.02;4.35;;;8.20;99.90;;;;;;5013221;28;20030;-87
2022/03/18 08:56:33;;;;;;;8.45;3.55;;;8.40;99.90;;;;;;5008409;28;20049;-87
2022/03/18 08:58:59;;;;;;;9.95;3.67;;;8.50;99.90;;;;;;5017326;28;20101;-87
2022/03/18 09:01:25;;;;;;;12.20;3.15;;;8.70;99.90;;;;;;5011177;28;20026;-90
2022/03/18 09:03:51;;;;;;;7.55;3.20;;;8.80;99.90;;;;;;5036980;28;20045;-89
2022/03/18 09:06:17;;;;;;;12.15;3.38;;;8.90;99.90;;;;;;5011192;28;20036;-87
2022/03/18 09:08:44;;;;;;;8.40;2.47;;;9.00;99.90;;;;;;5015471;28;20766;-87
2022/03/18 09:11:10;;;;;;;9.68;2.33;;;9.10;99.90;;;;;;5022542;28;20042;-87
2022/03/18 09:13:35;;;;;;;10.45;3.08;;;9.20;99.90;;;;;;5018436;28;20061;-87
2022/03/18 09:16:04;;;;;;;11.75;3.15;;;9.40;99.90;;;;;;5010217;28;20338;-88
2022/03/18 09:18:31;;;;;;;10.02;2.47;;;9.50;99.90;;;;;;5015874;28;20381;-87
2022/03/18 09:20:57;;;;;;;10.55;2.33;;;9.70;99.90;;;;;;5002984;28;20093;-88
2022/03/18 09:23:22;;;;;;;7.88;2.42;;;9.80;99.90;;;;;;5027875;28;20117;-88
2022/03/18 09:25:48;;;;;;;11.98;2.80;;;9.90;99.90;;;;;;5015868;28;20036;-88
2022/03/18 09:28:14;;;;;;;7.75;2.08;;;10.00;99.90;;;;;;5008850;28;20026;-87
2022/03/18 09:30:41;;;;;;;9.02;2.30;;;10.10;99.90;;;;;;5015288;28;20073;-88
2022/03/18 09:33:07;;;;;;;8.25;1.67;;;10.20;99.90;;;;;;5004642;28;20034;-88
2022/03/18 09:35:33;;;;;;;6.75;1.20;;;10.30;99.30;;;;;;5017941;28;20042;-87
2022/03/18 09:37:59;;;;;;;6.45;1.20;;;10.50;99.20;;;;;;5017946;28;20030;-87
2022/03/18 09:40:25;;;;;;;6.28;1.52;;;10.60;97.20;;;;;;5015772;28;20543;-87
2022/03/18 09:43:02;;;;;;;6.28;1.13;;;10.60;96.70;;;;;;5020323;28;20060;-87
2022/03/18 09:45:33;;;;;;;6.60;1.40;;;10.70;95.20;;;;;;5011721;28;20025;-87
2022/03/18 09:48:00;;;;;;;6.03;1.10;;;10.80;94.50;;;;;;5012956;28;20029;-87
2022/03/18 09:50:27;;;;;;;5.63;0.90;;;10.90;94.10;;;;;;5032349;28;20132;-87
2022/03/18 09:52:53;;;;;;;4.88;0.60;;;10.90;93.50;;;;;;5013777;28;20030;-91
2022/03/18 09:55:19;;;;;;;6.22;1.02;;;11.10;93.60;;;;;;5013449;28;20018;-89
2022/03/18 09:57:44;;;;;;;4.25;0.70;;;11.20;92.70;;;;;;5024011;28;20034;-89
2022/03/18 10:00:10;;;;;;;6.63;0.60;;;11.30;91.30;;;;;;5024800;28;20018;-87
2022/03/18 10:02:36;;;;;;;5.00;0.73;;;11.40;89.70;;;;;;5020654;28;20490;-88
2022/03/18 10:05:10;;;;;;;3.22;0.50;;;11.50;87.90;;;;;;5015374;28;20037;-88
2022/03/18 10:07:36;;;;;;;4.70;0.60;;;11.50;87.10;;;;;;5009851;28;20031;-89
2022/03/18 10:10:03;;;;;;;5.05;0.55;;;11.50;84.00;;;;;;5014288;28;20532;-88
2022/03/18 10:12:40;;;;;;;11.25;0.80;;;11.50;83.00;;;;;;5021782;28;20096;-89
2022/03/18 10:15:17;;;;;;;4.95;0.80;;;11.50;83.60;;;;;;5041087;28;20068;-87
2022/03/18 10:17:44;;;;;;;5.80;0.88;;;11.50;82.10;;;;;;5018877;28;20460;-88
2022/03/18 10:20:29;;;;;;;5.05;0.60;;;11.60;82.30;;;;;;5023118;28;20069;-87
2022/03/18 10:23:14;;;;;;;3.28;0.50;;;11.70;80.90;;;;;;5019627;28;20032;-86
2022/03/18 10:25:53;;;;;;;8.68;0.80;;;11.70;78.40;;;;;;5015075;28;20030;-86
2022/03/18 10:28:46;;;;;;;4.63;0.65;;;11.70;78.40;;;;;;5016126;28;20021;-87
2022/03/18 10:31:18;;;;;;;8.63;1.23;;;11.80;77.70;;;;;;5010612;28;20031;-88
2022/03/18 10:37:07;;;;;;;5.53;0.90;;;11.90;79.00;;;;;;5010954;28;20057;-88
2022/03/18 10:39:39;;;;;;;6.40;1.02;;;12.00;79.30;;;;;;5022796;28;20026;-87
2022/03/18 10:42:12;;;;;;;6.10;0.98;;;12.10;78.40;;;;;;5008490;28;20433;-88
2022/03/18 10:44:51;;;;;;;6.20;0.70;;;12.10;76.50;;;;;;5027968;28;20035;-87
2022/03/18 10:47:26;;;;;;;4.25;0.88;;;12.00;76.90;;;;;;5022700;28;20422;-87
2022/03/18 10:49:54;;;;;;;8.25;1.35;;;12.10;76.30;;;;;;5026374;28;20045;-87
2022/03/18 10:52:23;;;;;;;5.88;0.82;;;12.10;75.80;;;;;;5014695;28;20046;-88
2022/03/18 10:54:50;;;;;;;7.90;1.33;;;12.20;76.60;;;;;;5017677;28;20065;-88
2022/03/18 10:57:17;;;;;;;4.80;1.30;;;12.30;77.30;;;;;;5025396;28;20195;-87
2022/03/18 10:59:42;;;;;;;7.07;1.35;;;12.40;77.00;;;;;;5010389;28;20041;-87
2022/03/18 11:02:13;;;;;;;6.55;1.30;;;12.40;75.70;;;;;;5009291;28;20498;-88
2022/03/18 11:04:41;;;;;;;6.65;1.00;;;12.40;75.50;;;;;;5020263;28;20033;-88
2022/03/18 11:12:41;;;;;;;7.60;1.58;;;12.50;76.30;;;;;;5014685;28;20076;-87
2022/03/18 11:15:07;;;;;;;8.85;1.55;;;12.60;76.00;;;;;;5012467;28;20066;-88
2022/03/18 11:17:33;;;;;;;10.43;2.55;;;12.60;75.20;;;;;;5027470;28;20073;-87
2022/03/18 11:20:01;;;;;;;6.82;1.52;;;12.60;75.10;;;;;;5018967;28;20026;-87
2022/03/18 11:22:28;;;;;;;6.50;1.30;;;12.70;75.10;;;;;;5015485;28;20032;-87
2022/03/18 11:24:56;;;;;;;7.68;1.20;;;12.60;75.00;;;;;;5013833;28;20026;-87
2022/03/18 11:27:21;;;;;;;5.35;1.27;;;12.60;75.10;;;;;;5028432;28;20382;-87
2022/03/18 11:30:07;;;;;;;6.97;1.30;;;12.60;75.40;;;;;;5006415;28;20030;-88
2022/03/18 11:32:33;;;;;;;4.50;1.33;;;12.80;76.00;;;;;;5012426;28;20126;-88
2022/03/18 11:35:03;;;;;;;6.00;1.10;;;12.80;75.20;;;;;;5012175;28;20469;-88
2022/03/18 11:37:32;;;;;;;7.88;1.48;;;12.80;74.80;;;;;;5020069;28;20034;-89
2022/03/18 11:40:17;;;;;;;4.03;1.13;;;12.90;75.50;;;;;;5037154;28;20112;-88
2022/03/18 11:42:43;;;;;;;7.72;1.40;;;13.00;75.20;;;;;;5017032;28;20477;-89
2022/03/18 11:45:09;;;;;;;8.25;2.17;;;13.00;75.20;;;;;;5028960;28;20049;-89
2022/03/18 11:47:38;;;;;;;5.35;1.60;;;13.00;74.80;;;;;;5032446;28;20409;-89
2022/03/18 11:50:37;;;;;;;12.48;1.83;;;13.10;75.00;;;;;;5010122;28;20061;-89
2022/03/18 11:53:03;;;;;;;6.32;1.63;;;13.20;75.30;;;;;;5013952;28;20113;-88
2022/03/18 11:55:28;;;;;;;8.18;1.80;;;13.20;74.30;;;;;;5029964;28;20058;-89
2022/03/18 11:57:54;;;;;;;13.98;2.08;;;13.20;75.10;;;;;;5014835;28;20042;-89
2022/03/18 12:00:29;;;;;;;8.60;1.45;;;13.30;75.00;;;;;;5025783;28;20079;-89
2022/03/18 12:02:54;;;;;;;5.53;1.58;;;13.30;75.10;;;;;;5032617;28;20022;-89
2022/03/18 12:05:20;;;;;;;7.82;2.05;;;13.40;75.30;;;;;;5011127;28;20466;-88
2022/03/18 12:07:54;;;;;;;6.63;1.67;;;13.40;75.00;;;;;;5023691;28;20026;-89
2022/03/18 12:10:39;;;;;;;5.10;1.63;;;13.50;76.00;;;;;;5021775;28;20061;-90
2022/03/18 12:13:05;;;;;;;6.38;1.90;;;13.70;75.90;;;;;;5046574;28;20032;-92
2022/03/18 12:15:37;;;;;;;10.82;2.15;;;13.70;75.10;;;;;;5016766;28;20022;-96
2022/03/18 12:18:04;;;;;;;6.78;1.52;;;13.70;75.70;;;;;;5017503;28;20042;-89
2022/03/18 12:20:35;;;;;;;6.45;2.53;;;13.80;75.90;;;;;;5012419;28;20072;-89
2022/03/18 12:23:05;;;;;;;6.90;2.08;;;13.90;75.60;;;;;;5011550;28;20026;-89
2022/03/18 12:25:32;;;;;;;6.60;1.40;;;14.00;75.60;;;;;;5018604;28;20084;-89
2022/03/18 12:27:57;;;;;;;7.15;1.60;;;14.10;75.90;;;;;;5013858;28;20026;-90
2022/03/18 12:30:25;;;;;;;6.95;1.73;;;14.20;75.20;;;;;;5023257;28;20485;-89
2022/03/18 12:32:52;;;;;;;6.07;2.20;;;14.30;75.00;;;;;;5009419;28;20113;-88
2022/03/18 12:35:19;;;;;;;5.40;1.65;;;14.30;74.90;;;;;;5013722;28;20036;-88
2022/03/18 12:37:46;;;;;;;7.43;1.92;;;14.30;75.00;;;;;;5013160;28;20041;-89
2022/03/18 12:40:14;;;;;;;4.85;1.70;;;14.40;75.70;;;;;;5029769;28;20053;-88
2022/03/18 12:42:58;;;;;;;6.28;1.52;;;14.50;75.60;;;;;;5016949;28;20026;-89
2022/03/18 12:45:29;;;;;;;9.88;2.65;;;14.70;74.50;;;;;;5009378;28;20038;-90
2022/03/18 12:48:04;;;;;;;6.75;1.73;;;14.60;73.70;;;;;;5036140;28;20060;-90
2022/03/18 12:50:33;;;;;;;4.05;1.25;;;14.60;74.00;;;;;;5010780;28;20513;-89
2022/03/18 12:53:30;;;;;;;7.45;2.20;;;14.70;73.00;;;;;;5021351;28;20065;-90
2022/03/18 12:55:57;;;;;;;4.55;1.27;;;14.60;72.70;;;;;;5017044;28;20037;-90
2022/03/18 12:58:24;;;;;;;3.75;1.50;;;14.50;73.50;;;;;;5042170;28;20038;-90
2022/03/18 13:00:56;;;;;;;4.85;1.83;;;14.60;73.50;;;;;;5013197;28;20053;-89
2022/03/18 13:03:30;;;;;;;6.60;2.20;;;14.70;74.00;;;;;;5029556;28;20026;-89
2022/03/18 13:06:05;;;;;;;4.53;0.93;;;14.70;72.50;;;;;;5011518;28;20065;-90
2022/03/18 13:08:34;;;;;;;4.72;0.85;;;14.70;72.40;;;;;;5024874;28;20042;-89
2022/03/18 13:11:04;;;;;;;6.35;1.40;;;14.70;73.00;;;;;;5018294;28;20122;-89
2022/03/18 13:13:30;;;;;;;6.70;1.67;;;14.80;73.40;;;;;;5007761;28;20067;-90
2022/03/18 13:16:01;;;;;;;4.05;1.15;;;14.90;73.10;;;;;;5011797;28;20030;-89